Time;durP1;ratioP1;P1;durP2;ratioP2;P2;SDS_P1;SDS_P2;PMS_P1;PMS_P2;Temp;Humidity;BMP_temperature;BMP_pressure;BME280_temperature;BME280_humidity;BME280_pressure;Samples;Min_cycle;Max_cycle;Signal;HPM_P1;HPM_P2
2022/08/28 00:01:59;;;;;;;6.63;1.48;;;19.40;99.70;;;;;;7340342;19;116392;-74
2022/08/28 00:04:26;;;;;;;7.50;1.60;;;19.30;99.70;;;;;;7343306;19;112984;-74
2022/08/28 00:06:53;;;;;;;6.00;1.25;;;19.30;99.80;;;;;;7336971;19;111530;-74
2022/08/28 00:09:21;;;;;;;7.15;1.88;;;19.30;99.80;;;;;;7340400;19;109900;-75
2022/08/28 00:11:49;;;;;;;8.65;1.42;;;19.30;99.90;;;;;;7341080;19;111959;-74
2022/08/28 00:14:20;;;;;;;3.95;1.58;;;19.20;99.90;;;;;;7339738;19;113694;-74
2022/08/28 00:16:48;;;;;;;9.20;2.03;;;19.20;99.80;;;;;;7340949;19;110753;-75
2022/08/28 00:19:17;;;;;;;5.22;1.50;;;19.20;99.80;;;;;;7337152;19;110540;-74
2022/08/28 00:21:45;;;;;;;4.55;1.50;;;19.20;99.80;;;;;;7340645;19;111167;-75
2022/08/28 00:24:12;;;;;;;6.88;1.83;;;19.20;99.80;;;;;;7340221;19;109613;-74
2022/08/28 00:29:25;;;;;;;9.10;1.92;;;19.20;99.90;;;;;;7340312;19;110117;-75
2022/08/28 00:31:52;;;;;;;6.97;1.50;;;19.10;99.90;;;;;;7337893;19;110864;-74
2022/08/28 00:34:19;;;;;;;4.00;1.83;;;19.10;99.90;;;;;;7339349;19;111208;-74
2022/08/28 00:36:59;;;;;;;8.07;1.85;;;19.00;99.90;;;;;;7333836;19;109936;-74
2022/08/28 00:39:26;;;;;;;8.35;2.33;;;19.00;99.90;;;;;;7337806;19;110675;-75
2022/08/28 00:41:54;;;;;;;7.93;1.60;;;18.90;99.90;;;;;;7337809;19;110110;-74
2022/08/28 00:44:26;;;;;;;7.15;1.90;;;18.90;99.90;;;;;;7338684;19;109335;-74
2022/08/28 00:46:55;;;;;;;6.13;1.80;;;18.90;99.90;;;;;;7341394;19;114293;-75
2022/08/28 00:49:29;;;;;;;9.43;2.08;;;18.90;99.90;;;;;;7337265;19;109837;-74
2022/08/28 00:52:07;;;;;;;9.65;2.22;;;18.90;99.90;;;;;;7338781;19;110443;-74
2022/08/28 00:54:44;;;;;;;6.05;2.22;;;18.90;99.90;;;;;;7339472;19;112619;-75
2022/08/28 00:57:31;;;;;;;4.72;1.80;;;18.80;99.90;;;;;;7336609;19;109711;-74
2022/08/28 00:59:59;;;;;;;6.05;2.00;;;18.80;99.90;;;;;;7334616;19;110170;-75
2022/08/28 01:02:26;;;;;;;10.20;1.98;;;18.90;99.90;;;;;;7334794;19;111403;-74
2022/08/28 01:04:54;;;;;;;6.30;2.28;;;18.90;99.90;;;;;;7336743;19;110302;-74
2022/08/28 01:07:22;;;;;;;6.68;2.17;;;18.80;99.90;;;;;;7335716;19;112072;-74
2022/08/28 01:09:53;;;;;;;7.75;2.30;;;18.80;99.90;;;;;;7342610;19;111073;-74
2022/08/28 01:12:27;;;;;;;7.47;1.92;;;18.70;99.90;;;;;;7337767;19;110514;-75
2022/08/28 01:14:58;;;;;;;8.18;2.08;;;18.70;99.90;;;;;;7336263;19;110371;-74
2022/08/28 01:17:30;;;;;;;11.15;2.47;;;18.70;99.90;;;;;;7337455;19;109977;-75
2022/08/28 01:20:04;;;;;;;4.82;2.30;;;18.70;99.90;;;;;;7335666;19;110333;-74
2022/08/28 01:22:49;;;;;;;11.43;2.47;;;18.70;99.90;;;;;;7338894;19;111480;-75
2022/08/28 01:25:20;;;;;;;6.97;2.30;;;18.60;99.90;;;;;;7337287;19;109327;-75
2022/08/28 01:27:47;;;;;;;10.30;2.45;;;18.60;99.90;;;;;;7334498;19;111010;-74
2022/08/28 01:30:19;;;;;;;8.98;2.50;;;18.60;99.90;;;;;;7336503;19;111720;-75
2022/08/28 01:32:50;;;;;;;12.77;2.80;;;18.60;99.90;;;;;;7340862;19;109476;-74
2022/08/28 01:35:21;;;;;;;11.85;3.15;;;18.50;99.90;;;;;;7333744;19;111594;-76
2022/08/28 01:37:49;;;;;;;9.45;3.10;;;18.50;99.90;;;;;;7333864;19;110126;-75
2022/08/28 01:40:22;;;;;;;12.65;3.20;;;18.50;99.90;;;;;;7335649;19;110332;-74
2022/08/28 01:42:49;;;;;;;8.43;3.08;;;18.40;99.90;;;;;;7337140;19;111221;-75
2022/08/28 01:45:19;;;;;;;8.30;3.25;;;18.40;99.90;;;;;;7336783;19;110648;-74
2022/08/28 01:47:47;;;;;;;8.38;3.33;;;18.40;99.90;;;;;;7332812;19;111461;-74
2022/08/28 01:50:19;;;;;;;8.57;3.20;;;18.30;99.90;;;;;;7334919;19;110102;-75
2022/08/28 01:52:46;;;;;;;13.82;3.47;;;18.20;99.90;;;;;;7333308;19;111495;-74
2022/08/28 01:55:14;;;;;;;9.07;3.22;;;18.30;99.90;;;;;;7340813;19;109771;-74
2022/08/28 01:57:49;;;;;;;10.65;3.17;;;18.20;99.90;;;;;;7335781;19;109324;-74
2022/08/28 02:00:17;;;;;;;12.07;3.17;;;18.20;99.90;;;;;;7336026;19;111118;-74
2022/08/28 02:02:44;;;;;;;10.88;3.17;;;18.10;99.90;;;;;;7334140;19;111157;-75
2022/08/28 02:05:11;;;;;;;8.82;3.35;;;18.20;99.90;;;;;;7335702;19;110690;-75
2022/08/28 02:07:38;;;;;;;10.68;3.65;;;18.10;99.90;;;;;;7335037;19;111303;-79
2022/08/28 02:10:06;;;;;;;12.10;3.55;;;18.10;99.90;;;;;;7335867;19;110809;-79
2022/08/28 02:12:34;;;;;;;11.57;3.05;;;18.10;99.90;;;;;;7334138;19;110877;-78
2022/08/28 02:15:02;;;;;;;10.98;3.17;;;18.00;99.90;;;;;;7332860;19;111092;-78
2022/08/28 02:17:29;;;;;;;7.85;3.10;;;18.00;99.90;;;;;;7340428;19;110654;-79
2022/08/28 02:19:56;;;;;;;11.30;3.50;;;18.00;99.90;;;;;;7336272;19;111458;-78
2022/08/28 02:22:23;;;;;;;14.45;3.72;;;18.00;99.90;;;;;;7334342;19;110152;-78
2022/08/28 02:24:51;;;;;;;7.35;3.20;;;18.00;99.90;;;;;;7335504;19;110619;-78
2022/08/28 02:27:18;;;;;;;15.48;3.40;;;17.90;99.90;;;;;;7332933;19;111077;-75
2022/08/28 02:29:46;;;;;;;14.00;3.60;;;17.90;99.90;;;;;;7334083;19;111334;-79
2022/08/28 02:32:13;;;;;;;11.25;3.38;;;17.90;99.90;;;;;;7331943;19;110217;-77
2022/08/28 02:34:42;;;;;;;14.73;3.47;;;17.90;99.90;;;;;;7331738;19;110534;-79
2022/08/28 02:37:12;;;;;;;14.68;3.63;;;17.80;99.90;;;;;;7333842;19;111152;-78
2022/08/28 02:39:39;;;;;;;10.93;3.80;;;17.90;99.90;;;;;;7340066;19;109536;-75
2022/08/28 02:42:06;;;;;;;12.32;3.42;;;17.80;99.90;;;;;;7334571;19;111494;-75
2022/08/28 02:44:34;;;;;;;11.48;3.60;;;17.80;99.90;;;;;;7334850;19;110521;-74
2022/08/28 02:47:02;;;;;;;14.00;3.65;;;17.80;99.90;;;;;;7333469;19;110462;-75
2022/08/28 02:49:30;;;;;;;11.18;3.22;;;17.70;99.90;;;;;;7333570;19;111268;-76
2022/08/28 02:52:02;;;;;;;9.55;2.88;;;17.70;99.90;;;;;;7334548;19;109456;-74
2022/08/28 02:54:29;;;;;;;7.68;3.03;;;17.70;99.90;;;;;;7330828;19;109950;-75
2022/08/28 02:56:57;;;;;;;9.82;3.10;;;17.60;99.90;;;;;;7332985;19;113989;-75
2022/08/28 02:59:24;;;;;;;10.70;2.70;;;17.60;99.90;;;;;;7339622;19;111420;-75
2022/08/28 03:01:52;;;;;;;9.93;3.47;;;17.50;99.90;;;;;;7335010;19;110010;-74
2022/08/28 03:04:19;;;;;;;15.80;3.13;;;17.50;99.90;;;;;;7331472;19;109636;-75
2022/08/28 03:06:46;;;;;;;16.58;3.38;;;17.50;99.90;;;;;;7332357;19;109625;-75
2022/08/28 03:09:13;;;;;;;13.95;3.38;;;17.40;99.90;;;;;;7335458;19;111464;-74
2022/08/28 03:11:40;;;;;;;11.93;3.42;;;17.50;99.90;;;;;;7331540;19;109714;-74
2022/08/28 03:14:07;;;;;;;11.77;3.40;;;17.50;99.90;;;;;;7334335;19;110426;-74
2022/08/28 03:16:34;;;;;;;9.00;3.22;;;17.50;99.90;;;;;;7333451;19;111388;-74
2022/08/28 03:19:02;;;;;;;10.88;2.97;;;17.50;99.90;;;;;;7332393;19;112869;-75
2022/08/28 03:21:29;;;;;;;9.55;3.25;;;17.50;99.90;;;;;;7338885;19;110446;-74
2022/08/28 03:23:56;;;;;;;12.30;2.88;;;17.40;99.90;;;;;;7333771;19;109372;-74
2022/08/28 03:26:23;;;;;;;11.35;3.25;;;17.40;99.90;;;;;;7337885;19;110457;-74
2022/08/28 03:28:52;;;;;;;10.90;3.03;;;17.40;99.90;;;;;;7341005;19;111143;-74
2022/08/28 03:31:22;;;;;;;12.80;2.92;;;17.40;99.90;;;;;;7341182;19;109980;-74
2022/08/28 03:33:50;;;;;;;8.80;3.25;;;17.40;99.90;;;;;;7338583;19;110293;-74
2022/08/28 03:36:21;;;;;;;14.60;3.38;;;17.40;99.90;;;;;;7336700;19;110482;-74
2022/08/28 03:38:50;;;;;;;10.00;3.03;;;17.40;99.90;;;;;;7338624;19;109868;-74
2022/08/28 03:41:19;;;;;;;14.43;3.60;;;17.30;99.90;;;;;;7340767;19;110698;-74
2022/08/28 03:43:46;;;;;;;13.48;3.00;;;17.30;99.90;;;;;;7345411;19;110450;-74
2022/08/28 03:46:16;;;;;;;11.45;2.90;;;17.30;99.90;;;;;;7339575;19;109754;-74
2022/08/28 03:48:44;;;;;;;7.90;3.00;;;17.20;99.90;;;;;;7336445;19;110816;-74
2022/08/28 03:51:15;;;;;;;8.82;2.97;;;17.20;99.90;;;;;;7340634;19;109623;-74
2022/08/28 03:53:43;;;;;;;8.98;3.05;;;17.20;99.90;;;;;;7339731;19;109758;-74
2022/08/28 03:56:17;;;;;;;16.20;2.72;;;17.10;99.90;;;;;;7340165;19;111171;-74
2022/08/28 03:58:44;;;;;;;10.32;2.90;;;17.10;99.90;;;;;;7336499;19;109519;-75
2022/08/28 04:01:12;;;;;;;15.73;3.42;;;17.10;99.90;;;;;;7340227;19;110675;-74
2022/08/28 04:03:39;;;;;;;9.02;3.00;;;17.10;99.90;;;;;;7340550;19;111103;-74
2022/08/28 04:06:06;;;;;;;7.28;2.92;;;17.10;99.90;;;;;;7345164;19;109382;-74
2022/08/28 04:08:33;;;;;;;13.93;3.15;;;17.10;99.90;;;;;;7335706;19;111230;-74
2022/08/28 04:11:01;;;;;;;9.48;2.60;;;17.10;99.90;;;;;;7336872;19;109676;-74
2022/08/28 04:13:28;;;;;;;9.30;2.97;;;17.00;99.90;;;;;;7337674;19;114690;-74
2022/08/28 04:16:01;;;;;;;14.93;3.22;;;17.00;99.90;;;;;;7339517;19;111018;-74
2022/08/28 04:18:32;;;;;;;8.57;2.90;;;17.00;99.90;;;;;;7338009;19;109500;-74
2022/08/28 04:21:10;;;;;;;11.27;3.42;;;17.00;99.90;;;;;;7340908;19;111086;-74
2022/08/28 04:23:41;;;;;;;12.57;2.88;;;16.90;99.90;;;;;;7339273;19;111640;-75
2022/08/28 04:26:11;;;;;;;16.92;3.35;;;16.90;99.90;;;;;;7339747;19;109604;-75
2022/08/28 04:28:39;;;;;;;10.52;2.58;;;16.80;99.90;;;;;;7341390;19;110921;-74
2022/08/28 04:31:09;;;;;;;10.68;3.00;;;16.70;99.90;;;;;;7338004;19;109326;-74
2022/08/28 04:33:37;;;;;;;10.75;2.80;;;16.70;99.90;;;;;;7339501;19;110105;-74
2022/08/28 04:36:10;;;;;;;8.43;2.63;;;16.60;99.90;;;;;;7336564;19;110728;-74
2022/08/28 04:38:38;;;;;;;14.57;2.70;;;16.60;99.90;;;;;;7335198;19;109872;-74
2022/08/28 04:41:12;;;;;;;10.98;2.67;;;16.60;99.90;;;;;;7337905;19;113577;-74
2022/08/28 04:43:39;;;;;;;13.52;2.92;;;16.50;99.90;;;;;;7337862;19;112790;-74
2022/08/28 04:46:08;;;;;;;12.55;3.00;;;16.40;99.90;;;;;;7339380;19;109552;-74
2022/08/28 04:48:36;;;;;;;10.80;2.90;;;16.40;99.90;;;;;;7336946;19;110910;-73
2022/08/28 04:51:05;;;;;;;12.77;2.67;;;16.30;99.90;;;;;;7341869;19;114307;-74
2022/08/28 04:53:33;;;;;;;9.05;2.92;;;16.30;99.90;;;;;;7337707;19;109516;-74
2022/08/28 04:56:03;;;;;;;10.10;2.40;;;16.20;99.90;;;;;;7335105;19;111118;-74
2022/08/28 04:58:32;;;;;;;15.38;3.47;;;16.20;99.90;;;;;;7337726;19;110013;-74
2022/08/28 05:01:10;;;;;;;9.93;2.70;;;16.20;99.90;;;;;;7336500;19;110708;-74
2022/08/28 05:03:38;;;;;;;9.10;2.90;;;16.20;99.90;;;;;;7337325;19;111759;-74
2022/08/28 05:06:07;;;;;;;9.95;3.17;;;16.10;99.90;;;;;;7338221;19;110880;-74
2022/08/28 05:08:34;;;;;;;9.88;3.00;;;16.10;99.90;;;;;;7336291;19;110768;-74
2022/08/28 05:11:30;;;;;;;9.32;3.47;;;16.00;99.90;;;;;;7341886;19;110416;-73
2022/08/28 05:14:06;;;;;;;8.73;2.95;;;16.00;99.90;;;;;;7336076;19;110927;-74
2022/08/28 05:16:43;;;;;;;8.45;3.17;;;16.00;99.90;;;;;;7337754;19;112198;-74
2022/08/28 05:19:10;;;;;;;12.55;2.75;;;16.00;99.90;;;;;;7335452;19;111129;-75
2022/08/28 05:21:37;;;;;;;11.70;3.13;;;15.90;99.90;;;;;;7337155;19;110727;-74
2022/08/28 05:24:06;;;;;;;10.15;2.60;;;15.90;99.90;;;;;;7336963;19;110475;-74
2022/08/28 05:26:33;;;;;;;13.95;3.33;;;16.00;99.90;;;;;;7335459;19;110546;-74
2022/08/28 05:29:05;;;;;;;7.57;2.65;;;16.10;99.90;;;;;;7331615;19;109446;-76
2022/08/28 05:31:33;;;;;;;17.75;3.28;;;16.00;99.90;;;;;;7337275;19;112490;-76
2022/08/28 05:34:01;;;;;;;8.73;2.45;;;16.00;99.90;;;;;;7340653;19;110489;-74
2022/08/28 05:36:31;;;;;;;10.65;2.78;;;16.00;99.90;;;;;;7332347;19;113029;-77
2022/08/28 05:39:01;;;;;;;9.85;3.10;;;16.00;99.90;;;;;;7333105;19;109775;-76
2022/08/28 05:41:30;;;;;;;12.13;2.67;;;16.00;99.90;;;;;;7336502;19;111150;-76
2022/08/28 05:43:59;;;;;;;11.07;2.55;;;16.00;99.90;;;;;;7335081;19;110935;-74
2022/08/28 05:46:27;;;;;;;7.05;2.45;;;16.00;99.90;;;;;;7336078;19;110676;-74
2022/08/28 05:48:56;;;;;;;11.27;3.20;;;16.00;99.90;;;;;;7328827;19;110454;-74
2022/08/28 05:51:25;;;;;;;11.20;2.97;;;16.10;99.90;;;;;;7333245;19;111159;-74
2022/08/28 05:53:54;;;;;;;14.45;2.80;;;16.10;99.90;;;;;;7335091;19;110933;-74
2022/08/28 05:56:25;;;;;;;10.80;2.55;;;16.20;99.90;;;;;;7339388;19;110354;-74
2022/08/28 05:58:52;;;;;;;13.65;2.85;;;16.20;99.90;;;;;;7334520;19;109463;-74
2022/08/28 06:01:22;;;;;;;15.57;2.92;;;16.30;99.90;;;;;;7334894;19;111873;-74
2022/08/28 06:04:10;;;;;;;15.32;2.88;;;16.30;99.90;;;;;;7334755;19;111621;-74
2022/08/28 06:06:39;;;;;;;29.40;3.20;;;16.40;99.90;;;;;;7336520;19;109457;-74
2022/08/28 06:09:13;;;;;;;7.75;2.58;;;16.40;99.90;;;;;;7334385;19;110904;-74
2022/08/28 06:11:41;;;;;;;11.07;2.58;;;16.40;99.90;;;;;;7331781;19;111306;-75
2022/08/28 06:14:13;;;;;;;6.70;2.17;;;16.40;99.90;;;;;;7334093;19;109561;-75
2022/08/28 06:16:44;;;;;;;14.48;3.10;;;16.50;99.90;;;;;;7335586;19;109573;-75
2022/08/28 06:19:12;;;;;;;11.05;2.75;;;16.50;99.90;;;;;;7339413;19;111781;-73
2022/08/28 06:21:40;;;;;;;61.85;4.00;;;16.60;99.90;;;;;;7331071;19;110850;-75
2022/08/28 06:24:09;;;;;;;8.10;2.40;;;16.60;99.90;;;;;;7333944;19;111041;-74
2022/08/28 06:26:36;;;;;;;12.38;2.78;;;16.70;99.90;;;;;;7336724;19;109600;-73
2022/08/28 06:29:06;;;;;;;11.82;2.70;;;16.70;99.90;;;;;;7333310;19;110333;-74
2022/08/28 06:31:33;;;;;;;9.13;2.40;;;16.80;99.90;;;;;;7333051;19;110989;-70
2022/08/28 06:34:01;;;;;;;7.85;2.20;;;16.90;99.90;;;;;;7333912;19;109653;-69
2022/08/28 06:36:30;;;;;;;13.52;2.80;;;16.90;99.90;;;;;;7327239;19;110071;-69
2022/08/28 06:38:59;;;;;;;14.20;2.40;;;16.90;99.90;;;;;;7333043;19;110795;-69
2022/08/28 06:41:27;;;;;;;11.63;2.58;;;17.10;99.90;;;;;;7339487;19;109965;-69
2022/08/28 06:43:55;;;;;;;11.23;2.60;;;17.10;99.90;;;;;;7334793;19;110227;-69
2022/08/28 06:46:23;;;;;;;12.82;2.55;;;17.20;99.90;;;;;;7335739;19;110991;-70
2022/08/28 06:48:51;;;;;;;25.88;2.67;;;17.30;99.90;;;;;;7334443;19;111038;-70
2022/08/28 06:51:18;;;;;;;13.02;2.70;;;17.30;99.90;;;;;;7335671;19;111045;-69
2022/08/28 06:53:48;;;;;;;8.52;2.80;;;17.40;99.90;;;;;;7334432;19;109276;-69
2022/08/28 06:56:18;;;;;;;10.18;3.10;;;17.50;99.90;;;;;;7335987;19;110413;-70
2022/08/28 06:58:55;;;;;;;9.82;2.55;;;17.60;99.90;;;;;;7332899;19;111222;-70
2022/08/28 07:01:31;;;;;;;14.98;2.72;;;17.60;99.90;;;;;;7333975;19;109130;-72
2022/08/28 07:04:02;;;;;;;13.30;2.42;;;17.60;99.90;;;;;;7339410;19;110494;-75
2022/08/28 07:06:34;;;;;;;7.60;2.28;;;17.60;99.90;;;;;;7335598;19;109438;-74
2022/08/28 07:09:04;;;;;;;12.55;2.55;;;17.70;99.90;;;;;;7333126;19;110516;-74
2022/08/28 07:11:33;;;;;;;12.73;2.65;;;17.70;99.90;;;;;;7335570;19;111093;-73
2022/08/28 07:14:02;;;;;;;9.98;2.80;;;17.80;99.90;;;;;;7334943;19;109583;-74
2022/08/28 07:16:33;;;;;;;8.23;2.50;;;17.90;99.90;;;;;;7334787;19;112048;-74
2022/08/28 07:19:03;;;;;;;7.28;2.08;;;18.00;99.90;;;;;;7330845;19;111243;-74
2022/08/28 07:21:34;;;;;;;12.38;2.30;;;17.90;99.90;;;;;;7333661;19;110832;-72
2022/08/28 07:24:06;;;;;;;13.50;2.67;;;18.00;99.90;;;;;;7339232;19;109465;-69
2022/08/28 07:26:35;;;;;;;7.88;2.33;;;18.00;99.90;;;;;;7332478;19;110242;-69
2022/08/28 07:29:06;;;;;;;10.23;2.70;;;18.10;99.90;;;;;;7333065;19;110981;-69
2022/08/28 07:31:39;;;;;;;8.63;2.70;;;18.20;99.90;;;;;;7332099;19;110145;-69
2022/08/28 07:34:08;;;;;;;8.07;2.47;;;18.20;99.90;;;;;;7334556;19;109490;-68
2022/08/28 07:36:35;;;;;;;10.25;2.45;;;18.30;99.90;;;;;;7335401;19;111227;-70
2022/08/28 07:39:04;;;;;;;8.27;2.42;;;18.40;99.90;;;;;;7332920;19;110422;-69
2022/08/28 07:41:32;;;;;;;10.57;2.53;;;18.50;99.90;;;;;;7334059;19;109696;-68
2022/08/28 07:46:45;;;;;;;10.80;2.80;;;18.60;99.90;;;;;;7339781;19;111408;-69
2022/08/28 07:49:17;;;;;;;10.65;2.60;;;18.70;99.90;;;;;;7331872;19;110695;-70
2022/08/28 07:51:44;;;;;;;9.13;2.60;;;18.70;99.90;;;;;;7334334;19;110108;-70
2022/08/28 07:54:13;;;;;;;15.32;2.97;;;18.80;99.90;;;;;;7333044;19;109905;-69
2022/08/28 07:56:45;;;;;;;9.98;2.50;;;19.00;99.90;;;;;;7332857;19;110118;-69
2022/08/28 07:59:14;;;;;;;11.40;2.45;;;19.00;99.90;;;;;;7331526;19;111757;-69
2022/08/28 08:01:47;;;;;;;8.90;2.47;;;19.10;99.90;;;;;;7332901;19;109448;-69
2022/08/28 08:04:16;;;;;;;9.35;2.22;;;19.20;99.90;;;;;;7327102;19;110457;-70
2022/08/28 08:06:45;;;;;;;11.07;2.00;;;19.30;99.90;;;;;;7332428;19;111340;-69
2022/08/28 08:09:15;;;;;;;9.35;2.50;;;19.40;99.90;;;;;;7336497;19;109768;-70
2022/08/28 08:11:42;;;;;;;10.07;2.28;;;19.40;99.90;;;;;;7330750;19;111213;-69
2022/08/28 08:14:09;;;;;;;15.57;2.85;;;19.40;99.90;;;;;;7339508;19;110428;-70
2022/08/28 08:16:40;;;;;;;19.52;2.85;;;19.50;99.90;;;;;;7340516;19;110688;-69
2022/08/28 08:19:08;;;;;;;9.45;2.83;;;19.50;99.90;;;;;;7338474;19;112346;-69
2022/08/28 08:21:36;;;;;;;11.27;2.05;;;19.50;99.90;;;;;;7339405;19;109320;-70
2022/08/28 08:24:04;;;;;;;6.90;2.00;;;19.50;99.90;;;;;;7338351;19;111726;-69
2022/08/28 08:26:32;;;;;;;9.73;2.38;;;19.50;99.90;;;;;;7339375;19;111613;-69
2022/08/28 08:28:59;;;;;;;10.43;2.47;;;19.60;99.90;;;;;;7336075;19;110653;-70
2022/08/28 08:31:31;;;;;;;14.60;2.42;;;19.70;99.90;;;;;;7346828;19;110817;-69
2022/08/28 08:34:01;;;;;;;13.95;2.50;;;19.80;99.90;;;;;;7341808;19;109771;-69
2022/08/28 08:36:31;;;;;;;12.52;2.10;;;19.80;99.90;;;;;;7337514;19;110802;-70
2022/08/28 08:38:58;;;;;;;12.90;2.20;;;20.00;99.90;;;;;;7337220;19;111480;-69
2022/08/28 08:41:36;;;;;;;12.68;2.22;;;20.10;99.90;;;;;;7338601;19;110658;-69
2022/08/28 08:44:27;;;;;;;6.75;1.98;;;20.30;99.90;;;;;;7337834;19;110461;-70
2022/08/28 08:47:16;;;;;;;11.65;2.17;;;20.40;99.50;;;;;;7338313;19;113795;-70
2022/08/28 08:49:51;;;;;;;7.07;1.83;;;20.40;99.90;;;;;;7337258;19;110008;-70
2022/08/28 08:52:29;;;;;;;12.07;2.22;;;20.40;99.30;;;;;;7338453;19;111312;-69
2022/08/28 08:55:18;;;;;;;9.25;1.95;;;20.60;99.90;;;;;;7344014;19;111532;-69
2022/08/28 08:57:50;;;;;;;8.05;1.88;;;20.80;99.30;;;;;;7337687;19;110750;-69
2022/08/28 09:00:18;;;;;;;17.38;1.77;;;20.90;99.40;;;;;;7335662;19;111858;-69
2022/08/28 09:02:53;;;;;;;10.25;1.77;;;21.00;99.30;;;;;;7338882;19;110825;-69
2022/08/28 09:05:42;;;;;;;10.35;1.95;;;21.10;98.80;;;;;;7337626;19;111129;-68
2022/08/28 09:08:37;;;;;;;10.88;1.95;;;21.20;98.80;;;;;;7335526;19;110462;-70
2022/08/28 09:11:33;;;;;;;15.63;2.25;;;21.30;97.60;;;;;;7336990;19;109487;-70
2022/08/28 09:14:22;;;;;;;13.00;1.80;;;21.20;97.80;;;;;;7337255;19;110141;-70
2022/08/28 09:16:56;;;;;;;7.25;1.60;;;21.30;97.80;;;;;;7337340;19;110544;-70
2022/08/28 09:19:23;;;;;;;10.02;1.80;;;21.40;97.90;;;;;;7341836;19;109961;-69
2022/08/28 09:21:51;;;;;;;7.63;1.95;;;21.50;97.90;;;;;;7337148;19;110225;-69
2022/08/28 09:24:23;;;;;;;5.70;1.42;;;21.60;97.00;;;;;;7333704;19;110307;-69
2022/08/28 09:26:58;;;;;;;8.30;1.83;;;21.50;96.60;;;;;;7338873;19;110672;-69
2022/08/28 09:29:34;;;;;;;8.15;1.58;;;21.40;96.40;;;;;;7335619;19;110229;-70
2022/08/28 09:32:22;;;;;;;7.28;1.40;;;21.30;96.80;;;;;;7338084;19;110757;-70
2022/08/28 09:35:05;;;;;;;6.38;1.67;;;21.30;96.20;;;;;;7336576;19;112153;-70
2022/08/28 09:37:33;;;;;;;8.68;1.33;;;21.20;96.70;;;;;;7338853;19;112411;-70
2022/08/28 09:43:25;;;;;;;13.48;2.00;;;21.10;96.80;;;;;;7340186;19;109726;-70
2022/08/28 09:43:26;;;;;;;5.68;1.40;;;21.20;96.60;;;;;;7337595;19;113790;-70
2022/08/28 09:45:58;;;;;;;7.82;2.08;;;21.20;96.80;;;;;;7334456;19;110100;-71
2022/08/28 09:48:44;;;;;;;8.02;1.58;;;21.20;96.70;;;;;;7335987;19;110417;-70
2022/08/28 09:51:21;;;;;;;6.47;1.75;;;21.10;96.90;;;;;;7335862;19;111087;-71
2022/08/28 09:53:51;;;;;;;8.00;1.40;;;21.10;97.50;;;;;;7334772;19;109871;-69
2022/08/28 09:56:30;;;;;;;8.50;1.65;;;21.30;96.90;;;;;;7337163;19;110724;-70
2022/08/28 09:59:18;;;;;;;6.88;1.70;;;21.50;96.10;;;;;;7333522;19;111085;-70
2022/08/28 10:02:09;;;;;;;8.35;1.40;;;21.50;96.00;;;;;;7334832;19;109885;-69
2022/08/28 10:04:36;;;;;;;8.93;2.00;;;21.70;96.40;;;;;;7341511;19;110378;-70
2022/08/28 10:07:15;;;;;;;6.97;1.70;;;22.00;96.30;;;;;;7336133;19;110197;-70
2022/08/28 10:10:20;;;;;;;8.00;1.58;;;22.10;96.10;;;;;;7333063;19;110589;-70
2022/08/28 10:13:18;;;;;;;5.43;1.95;;;22.20;95.70;;;;;;7337013;19;111509;-71
2022/08/28 10:16:08;;;;;;;8.30;1.42;;;22.30;95.70;;;;;;7334817;19;110482;-71
2022/08/28 10:18:49;;;;;;;6.60;1.40;;;22.50;95.20;;;;;;7336352;19;110505;-71
2022/08/28 10:21:31;;;;;;;7.15;1.38;;;22.70;94.70;;;;;;7334347;19;110446;-70
2022/08/28 10:24:19;;;;;;;4.97;1.27;;;22.80;94.20;;;;;;7336518;19;110086;-70
2022/08/28 10:27:10;;;;;;;8.52;1.40;;;22.60;94.10;;;;;;7334856;19;110494;-70
2022/08/28 10:29:50;;;;;;;6.05;1.88;;;22.50;94.60;;;;;;7340083;19;110602;-70
2022/08/28 10:32:29;;;;;;;4.68;1.17;;;22.50;94.40;;;;;;7335455;19;109690;-71
2022/08/28 10:35:15;;;;;;;8.60;1.60;;;22.60;94.50;;;;;;7329655;19;110065;-70
2022/08/28 10:38:09;;;;;;;10.00;1.48;;;22.50;94.10;;;;;;7335074;19;109249;-71
2022/08/28 10:41:04;;;;;;;4.50;1.45;;;22.60;94.30;;;;;;7332149;19;111962;-70
2022/08/28 10:43:45;;;;;;;5.20;1.38;;;22.80;94.40;;;;;;7334856;19;109544;-71
2022/08/28 10:46:23;;;;;;;7.82;1.60;;;23.00;93.30;;;;;;7334874;19;109845;-70
2022/08/28 10:49:05;;;;;;;7.22;1.60;;;23.00;93.70;;;;;;7332575;19;110332;-70
2022/08/28 10:51:40;;;;;;;6.85;1.70;;;23.10;94.00;;;;;;7332114;19;110716;-70
2022/08/28 10:55:11;;;;;;;7.60;1.30;;;23.30;93.90;;;;;;7340692;19;112620;-70
2022/08/28 10:57:44;;;;;;;5.50;1.35;;;23.30;92.50;;;;;;7330800;19;111177;-71
2022/08/28 11:00:22;;;;;;;6.75;1.20;;;23.20;91.80;;;;;;7330976;19;110424;-71
2022/08/28 11:02:56;;;;;;;3.20;1.00;;;23.10;91.90;;;;;;7333938;19;110714;-70
2022/08/28 11:05:31;;;;;;;2.92;1.30;;;23.10;92.00;;;;;;7334376;19;110612;-70
2022/08/28 11:08:04;;;;;;;5.90;1.48;;;23.10;92.10;;;;;;7331147;19;110486;-70
2022/08/28 11:10:31;;;;;;;4.78;1.15;;;23.00;92.70;;;;;;7329772;19;111318;-70
2022/08/28 11:12:59;;;;;;;4.95;1.10;;;23.00;92.00;;;;;;7330509;19;110181;-70
2022/08/28 11:15:26;;;;;;;5.35;1.13;;;23.00;91.60;;;;;;7330795;19;110529;-71
2022/08/28 11:18:14;;;;;;;5.43;1.00;;;22.90;91.20;;;;;;7335356;19;110088;-70
2022/08/28 11:21:02;;;;;;;7.22;1.20;;;23.00;91.60;;;;;;7328121;19;110033;-71
2022/08/28 11:23:54;;;;;;;4.10;0.93;;;23.10;91.40;;;;;;7329537;19;111253;-70
2022/08/28 11:26:44;;;;;;;17.27;1.52;;;23.30;92.00;;;;;;7329146;19;114245;-70
2022/08/28 11:29:50;;;;;;;9.73;1.17;;;23.60;92.10;;;;;;7329075;19;109599;-69
2022/08/28 11:32:29;;;;;;;5.50;1.00;;;23.80;91.80;;;;;;7332144;19;109619;-71
2022/08/28 11:35:18;;;;;;;8.18;1.30;;;24.10;91.00;;;;;;7331652;19;111017;-70
2022/08/28 11:37:49;;;;;;;6.85;1.17;;;24.10;91.10;;;;;;7331788;19;110093;-70
2022/08/28 11:40:50;;;;;;;4.25;1.20;;;24.30;91.70;;;;;;7338197;19;110367;-70
2022/08/28 11:43:20;;;;;;;3.75;0.80;;;24.20;90.10;;;;;;7334233;19;110000;-70
2022/08/28 11:46:10;;;;;;;8.18;1.30;;;24.20;90.30;;;;;;7333627;19;111285;-70
2022/08/28 11:48:42;;;;;;;2.75;1.08;;;24.10;90.20;;;;;;7338999;19;110200;-70
2022/08/28 11:51:30;;;;;;;8.48;1.23;;;24.00;89.00;;;;;;7338893;19;110895;-70
2022/08/28 11:54:29;;;;;;;7.60;0.98;;;23.70;89.50;;;;;;7340529;19;110172;-71
2022/08/28 11:57:18;;;;;;;6.15;1.13;;;23.70;89.70;;;;;;7341227;19;111645;-71
2022/08/28 12:00:03;;;;;;;6.60;1.20;;;23.80;89.00;;;;;;7337633;19;109376;-71
2022/08/28 12:02:39;;;;;;;6.13;0.90;;;23.80;88.20;;;;;;7340440;19;110404;-70
2022/08/28 12:05:14;;;;;;;13.45;1.17;;;24.00;88.70;;;;;;7344936;19;111685;-70
2022/08/28 12:07:47;;;;;;;11.80;1.30;;;24.30;89.80;;;;;;7340848;19;110441;-70
2022/08/28 12:10:24;;;;;;;5.35;1.00;;;24.50;89.70;;;;;;7338897;19;110343;-70
2022/08/28 12:12:54;;;;;;;8.07;1.38;;;24.80;88.20;;;;;;7340750;19;109888;-71
2022/08/28 12:15:28;;;;;;;2.78;0.80;;;25.00;88.00;;;;;;7337743;19;109391;-70
2022/08/28 12:18:05;;;;;;;8.07;1.33;;;25.10;86.60;;;;;;7338936;19;110157;-70
2022/08/28 12:20:47;;;;;;;3.63;0.93;;;25.30;87.00;;;;;;7339927;19;109622;-71
2022/08/28 12:23:35;;;;;;;5.85;1.00;;;25.40;82.60;;;;;;7339516;19;110195;-70
2022/08/28 12:26:14;;;;;;;3.22;0.80;;;25.50;85.20;;;;;;7339524;19;114466;-71
2022/08/28 12:28:44;;;;;;;6.18;0.93;;;25.70;82.80;;;;;;7344849;19;109911;-71
2022/08/28 12:34:38;;;;;;;4.07;0.90;;;25.60;81.40;;;;;;7333063;19;110718;-71
2022/08/28 12:37:22;;;;;;;2.90;1.08;;;25.70;81.00;;;;;;7338224;19;111185;-71
2022/08/28 12:39:50;;;;;;;3.75;0.90;;;25.70;81.50;;;;;;7336165;19;111855;-71
2022/08/28 12:42:22;;;;;;;3.45;0.90;;;25.60;81.40;;;;;;7338858;19;109577;-71
2022/08/28 12:44:49;;;;;;;2.67;1.20;;;25.80;81.40;;;;;;7337439;19;110131;-72
2022/08/28 12:47:21;;;;;;;5.10;1.00;;;25.70;80.30;;;;;;7337042;19;111248;-71
2022/08/28 12:49:49;;;;;;;2.50;1.00;;;25.70;79.80;;;;;;7338093;19;109768;-70
2022/08/28 12:52:20;;;;;;;2.85;0.88;;;25.80;80.30;;;;;;7344088;19;110400;-72
2022/08/28 12:54:49;;;;;;;14.65;1.30;;;25.90;79.30;;;;;;7337412;19;110341;-70
2022/08/28 12:57:20;;;;;;;3.55;0.90;;;25.90;78.10;;;;;;7338980;19;110478;-71
2022/08/28 12:59:52;;;;;;;2.95;0.85;;;25.90;77.00;;;;;;7336531;19;113711;-71
2022/08/28 13:02:27;;;;;;;5.43;1.00;;;25.80;77.00;;;;;;7337942;19;110270;-71
2022/08/28 13:04:58;;;;;;;3.38;1.02;;;26.00;79.60;;;;;;7336169;19;110478;-71
2022/08/28 13:07:31;;;;;;;5.75;0.80;;;26.20;77.50;;;;;;7337038;19;110439;-71
2022/08/28 13:10:03;;;;;;;2.88;1.02;;;26.50;77.30;;;;;;7337938;19;109921;-70
2022/08/28 13:12:39;;;;;;;4.68;0.93;;;26.40;76.30;;;;;;7338364;19;110374;-71